createdAt,value
2019-02-11T00:01:34.809Z,118.60
2019-02-11T00:04:06.642Z,165.60
2019-02-11T00:06:38.154Z,175.75
2019-02-11T00:09:10.377Z,182.25
2019-02-11T00:11:41.667Z,156.75
2019-02-11T00:14:13.190Z,145.40
2019-02-11T00:16:44.567Z,131.00
2019-02-11T00:19:16.044Z,127.20
2019-02-11T00:21:47.899Z,114.60
2019-02-11T00:24:19.196Z,130.80
2019-02-11T00:26:50.927Z,112.20
2019-02-11T00:29:22.380Z,99.60
2019-02-11T00:31:54.236Z,125.20
2019-02-11T00:34:25.683Z,120.60
2019-02-11T00:36:57.576Z,112.20
2019-02-11T00:39:29.124Z,120.80
2019-02-11T00:42:00.530Z,109.00
2019-02-11T00:44:32.134Z,126.20
2019-02-11T00:47:03.630Z,117.60
2019-02-11T00:49:34.927Z,115.80
2019-02-11T00:52:06.841Z,123.20
2019-02-11T00:54:38.536Z,113.80
2019-02-11T00:57:09.969Z,120.60
2019-02-11T00:59:41.562Z,134.60
2019-02-11T01:02:12.907Z,114.60
2019-02-11T01:04:44.381Z,113.80
2019-02-11T01:07:15.520Z,126.20
2019-02-11T01:09:48.303Z,120.00
2019-02-11T01:12:19.943Z,134.20
2019-02-11T01:14:51.455Z,120.20
2019-02-11T01:17:22.732Z,128.40
2019-02-11T01:19:54.395Z,123.60
2019-02-11T01:22:27.164Z,135.80
2019-02-11T01:24:58.624Z,133.40
2019-02-11T01:27:30.010Z,132.20
2019-02-11T01:30:01.715Z,141.80
2019-02-11T01:32:32.861Z,133.40
2019-02-11T01:35:04.350Z,138.20
2019-02-11T01:37:35.961Z,146.40
2019-02-11T01:40:09.872Z,147.20
2019-02-11T01:42:41.220Z,145.00
2019-02-11T01:45:14.254Z,171.50
2019-02-11T01:47:45.743Z,208.25
2019-02-11T01:50:17.408Z,199.75
2019-02-11T01:52:48.619Z,200.75
2019-02-11T01:55:19.956Z,198.50
2019-02-11T01:57:51.244Z,184.75
2019-02-11T02:00:22.734Z,192.00
2019-02-11T02:02:54.028Z,187.50
2019-02-11T02:05:25.652Z,205.50
2019-02-11T02:07:57.000Z,196.00
2019-02-11T02:10:28.420Z,165.75
2019-02-11T02:12:59.705Z,143.20
2019-02-11T02:15:30.945Z,147.25
2019-02-11T02:18:02.290Z,184.75
2019-02-11T02:20:33.539Z,162.75
2019-02-11T02:23:06.892Z,174.00
2019-02-11T02:25:38.890Z,168.75
2019-02-11T02:28:10.692Z,151.00
2019-02-11T02:30:42.155Z,162.40
2019-02-11T02:33:13.413Z,147.80
2019-02-11T02:35:44.508Z,157.60
2019-02-11T02:38:16.904Z,169.00
2019-02-11T02:40:51.628Z,166.00
2019-02-11T02:43:22.847Z,164.00
2019-02-11T02:45:53.939Z,151.40
2019-02-11T02:48:25.177Z,158.60
2019-02-11T02:50:56.184Z,163.00
2019-02-11T02:53:27.305Z,152.60
2019-02-11T02:55:58.535Z,153.80
2019-02-11T02:58:29.502Z,155.20
2019-02-11T03:01:00.551Z,170.60
2019-02-11T03:03:31.957Z,165.25
2019-02-11T03:06:03.071Z,146.60
2019-02-11T03:08:34.279Z,148.40
2019-02-11T03:11:05.342Z,150.60
2019-02-11T03:13:36.509Z,152.00
2019-02-11T03:16:07.635Z,151.80
2019-02-11T03:18:38.619Z,166.50
2019-02-11T03:21:10.256Z,169.75
2019-02-11T03:23:41.253Z,172.00
2019-02-11T03:26:12.212Z,167.50
2019-02-11T03:28:43.250Z,187.25
2019-02-11T03:31:14.414Z,186.25
2019-02-11T03:33:45.488Z,178.00
2019-02-11T03:36:16.561Z,191.75
2019-02-11T03:38:49.184Z,176.50
2019-02-11T03:41:20.667Z,196.50
2019-02-11T03:43:51.962Z,203.75
2019-02-11T03:46:23.277Z,219.00
2019-02-11T03:49:01.604Z,213.75
2019-02-11T03:51:32.666Z,200.75
2019-02-11T03:54:09.566Z,202.50
2019-02-11T03:56:40.634Z,200.25
2019-02-11T03:59:11.635Z,201.00
2019-02-11T04:01:47.038Z,186.00
2019-02-11T04:04:20.058Z,172.00
2019-02-11T04:06:53.034Z,193.50
2019-02-11T04:09:26.019Z,167.75
2019-02-11T04:11:57.121Z,160.50
2019-02-11T04:14:28.071Z,160.40
2019-02-11T04:16:59.025Z,157.80
2019-02-11T04:19:30.261Z,167.60
2019-02-11T04:22:08.891Z,151.60
2019-02-11T04:24:40.246Z,157.80
2019-02-11T04:27:11.698Z,169.60
2019-02-11T04:29:43.138Z,161.80
2019-02-11T04:32:14.591Z,153.00
2019-02-11T04:34:46.000Z,157.80
2019-02-11T04:37:17.667Z,167.00
2019-02-11T04:39:49.052Z,150.80
2019-02-11T04:42:20.560Z,151.20
2019-02-11T04:44:52.921Z,152.80
2019-02-11T04:47:27.539Z,149.60
2019-02-11T04:49:58.838Z,142.40
2019-02-11T04:52:30.155Z,139.40
2019-02-11T04:55:01.207Z,135.60
2019-02-11T04:57:32.663Z,137.00
2019-02-11T05:00:04.286Z,137.40
2019-02-11T05:02:36.044Z,122.60
2019-02-11T05:05:08.014Z,128.20
2019-02-11T05:07:39.390Z,127.00
2019-02-11T05:10:12.079Z,124.20
2019-02-11T05:12:43.605Z,126.20
2019-02-11T05:15:14.717Z,118.80
2019-02-11T05:17:46.385Z,126.20
2019-02-11T05:20:17.849Z,126.60
2019-02-11T05:22:49.279Z,136.60
2019-02-11T05:25:20.457Z,128.60
2019-02-11T05:27:52.169Z,141.40
2019-02-11T05:30:23.463Z,150.20
2019-02-11T05:32:54.720Z,133.60
2019-02-11T05:35:26.049Z,158.00
2019-02-11T05:37:57.367Z,166.50
2019-02-11T05:40:28.548Z,146.00
2019-02-11T05:42:59.905Z,146.60
2019-02-11T05:45:30.907Z,142.00
2019-02-11T05:48:02.362Z,151.40
2019-02-11T05:50:33.529Z,143.00
2019-02-11T05:53:04.964Z,171.20
2019-02-11T05:55:36.594Z,155.50
2019-02-11T05:58:08.144Z,171.60
2019-02-11T06:00:39.467Z,162.20
2019-02-11T06:03:11.454Z,148.00
2019-02-11T06:05:43.348Z,148.20
2019-02-11T06:08:14.609Z,155.00
2019-02-11T06:10:46.317Z,143.60
2019-02-11T06:13:17.819Z,162.60
2019-02-11T06:15:49.424Z,180.00
2019-02-11T06:18:20.573Z,172.75
2019-02-11T06:20:52.221Z,156.60
2019-02-11T06:23:23.503Z,176.50
2019-02-11T06:25:55.351Z,176.40
2019-02-11T06:28:27.095Z,164.00
2019-02-11T06:30:58.304Z,176.80
2019-02-11T06:33:30.180Z,149.80
2019-02-11T06:36:11.448Z,170.00
2019-02-11T06:38:35.069Z,159.00
2019-02-11T06:41:06.210Z,143.80
2019-02-11T06:43:38.796Z,135.60
2019-02-11T06:46:10.097Z,139.40
2019-02-11T06:48:41.683Z,134.60
2019-02-11T06:51:13.311Z,119.60
2019-02-11T06:53:45.044Z,116.20
2019-02-11T06:56:16.337Z,118.00
2019-02-11T06:58:48.152Z,105.20
2019-02-11T07:01:19.595Z,121.60
2019-02-11T07:03:51.473Z,118.00
2019-02-11T07:06:22.920Z,115.20
2019-02-11T07:08:54.120Z,118.00
2019-02-11T07:11:25.618Z,98.20
2019-02-11T07:13:57.043Z,108.40
2019-02-11T07:16:28.466Z,109.40
2019-02-11T07:19:00.088Z,102.60
2019-02-11T07:21:31.471Z,104.40
2019-02-11T07:24:02.960Z,97.40
2019-02-11T07:26:34.263Z,97.00
2019-02-11T07:29:05.632Z,100.80
2019-02-11T07:31:37.118Z,106.00
2019-02-11T07:34:08.391Z,104.80
2019-02-11T07:36:39.825Z,94.00
2019-02-11T07:39:11.778Z,95.40
2019-02-11T07:42:02.375Z,99.00
2019-02-11T07:44:39.052Z,99.20
2019-02-11T07:47:10.600Z,90.00
2019-02-11T07:49:42.125Z,90.80
2019-02-11T07:52:13.909Z,88.80
2019-02-11T07:54:45.439Z,110.80
2019-02-11T07:57:18.446Z,97.80
2019-02-11T07:59:49.575Z,109.40
2019-02-11T08:02:21.226Z,99.00
2019-02-11T08:04:52.707Z,104.60
2019-02-11T08:07:24.059Z,103.80
2019-02-11T08:09:55.326Z,95.40
2019-02-11T08:12:26.800Z,95.40
2019-02-11T08:14:58.035Z,88.60
2019-02-11T08:17:29.707Z,99.80
2019-02-11T08:20:01.149Z,94.80
2019-02-11T08:22:32.737Z,89.40
2019-02-11T08:25:05.564Z,94.60
2019-02-11T08:27:37.036Z,82.60
2019-02-11T08:30:08.790Z,89.00
2019-02-11T08:32:39.969Z,94.60
2019-02-11T08:35:13.625Z,103.40
2019-02-11T08:37:46.502Z,94.60
2019-02-11T08:40:18.327Z,110.00
2019-02-11T08:42:50.607Z,97.00
2019-02-11T08:45:22.760Z,105.60
2019-02-11T08:47:56.432Z,103.40
2019-02-11T08:50:28.184Z,81.00
2019-02-11T08:52:59.692Z,91.40
2019-02-11T08:55:31.199Z,107.20
2019-02-11T08:58:02.752Z,102.60
2019-02-11T09:00:34.151Z,107.00
2019-02-11T09:03:05.471Z,105.40
2019-02-11T09:05:36.623Z,101.20
2019-02-11T09:08:08.372Z,110.20
2019-02-11T09:10:39.884Z,103.20
2019-02-11T09:13:11.442Z,109.60
2019-02-11T09:15:42.630Z,95.00
2019-02-11T09:18:14.354Z,95.60
2019-02-11T09:20:45.889Z,99.80
2019-02-11T09:23:17.825Z,104.00
2019-02-11T09:25:50.133Z,101.40
2019-02-11T09:28:21.345Z,97.80
2019-02-11T09:30:52.558Z,106.00
2019-02-11T09:33:23.536Z,100.80
2019-02-11T09:35:54.626Z,94.40
2019-02-11T09:38:26.396Z,107.00
2019-02-11T09:40:57.529Z,102.40
2019-02-11T09:43:28.713Z,100.80
2019-02-11T09:46:03.845Z,90.20
2019-02-11T09:48:35.608Z,89.80
2019-02-11T09:51:07.385Z,93.00
2019-02-11T09:53:39.490Z,92.60
2019-02-11T09:56:13.155Z,91.00
2019-02-11T09:58:44.108Z,85.00
2019-02-11T10:01:15.224Z,84.20
2019-02-11T10:03:46.423Z,84.20
2019-02-11T10:06:17.394Z,81.40
2019-02-11T10:08:48.467Z,76.20
2019-02-11T10:11:19.534Z,78.80
2019-02-11T10:13:50.594Z,74.00
2019-02-11T10:16:22.330Z,79.80
2019-02-11T10:18:53.737Z,73.00
2019-02-11T10:21:24.950Z,78.00
2019-02-11T10:23:57.038Z,77.20
2019-02-11T10:26:28.694Z,82.60
2019-02-11T10:28:59.827Z,73.60
2019-02-11T10:31:31.043Z,79.20
2019-02-11T10:34:02.505Z,75.20
2019-02-11T10:36:33.741Z,82.60
2019-02-11T10:39:06.223Z,77.80
2019-02-11T10:41:39.014Z,75.40
2019-02-11T10:44:10.643Z,80.00
2019-02-11T10:46:46.757Z,72.20
2019-02-11T10:49:17.875Z,74.20
2019-02-11T10:51:49.295Z,79.40
2019-02-11T10:54:20.472Z,71.80
2019-02-11T10:56:52.159Z,82.60
2019-02-11T10:59:24.407Z,79.00
2019-02-11T11:01:55.419Z,82.80
2019-02-11T11:04:26.719Z,72.60
2019-02-11T11:06:58.539Z,80.00
2019-02-11T11:09:31.335Z,77.40
2019-02-11T11:12:02.568Z,79.80
2019-02-11T11:14:35.043Z,77.40
2019-02-11T11:17:08.229Z,78.40
2019-02-11T11:19:41.558Z,70.20
2019-02-11T11:22:12.798Z,76.00
2019-02-11T11:24:43.995Z,84.00
2019-02-11T11:27:15.261Z,78.60
2019-02-11T11:29:46.393Z,75.00
2019-02-11T11:32:19.494Z,74.20
2019-02-11T11:34:50.518Z,75.60
2019-02-11T11:37:21.675Z,72.40
2019-02-11T11:39:52.751Z,78.20
2019-02-11T11:42:24.000Z,82.80
2019-02-11T11:44:55.201Z,80.60
2019-02-11T11:47:28.133Z,77.60
2019-02-11T11:49:59.322Z,79.40
2019-02-11T11:52:30.697Z,74.00
2019-02-11T11:55:02.085Z,83.60
2019-02-11T11:57:34.704Z,72.20
2019-02-11T12:00:12.277Z,76.60
2019-02-11T12:02:59.569Z,79.60
2019-02-11T12:05:17.668Z,81.00
2019-02-11T12:07:48.927Z,85.00
2019-02-11T12:10:20.322Z,85.80
2019-02-11T12:12:51.785Z,74.80
2019-02-11T12:15:24.447Z,72.60
2019-02-11T12:17:55.860Z,76.40
2019-02-11T12:20:27.425Z,83.20
2019-02-11T12:22:58.818Z,82.20
2019-02-11T12:25:30.548Z,85.00
2019-02-11T12:28:02.393Z,75.40
2019-02-11T12:30:34.236Z,77.20
2019-02-11T12:33:05.670Z,78.40
2019-02-11T12:35:37.162Z,86.80
2019-02-11T12:38:09.000Z,92.00
2019-02-11T12:40:40.717Z,86.60
2019-02-11T12:43:11.918Z,90.20
2019-02-11T12:45:43.696Z,76.00
2019-02-11T12:48:16.481Z,74.40
2019-02-11T12:50:49.355Z,82.80
2019-02-11T12:53:20.483Z,99.40
2019-02-11T12:55:51.731Z,98.40
2019-02-11T12:58:22.946Z,109.20
2019-02-11T13:00:55.382Z,104.80
2019-02-11T13:03:27.003Z,106.80
2019-02-11T13:05:59.323Z,111.00
2019-02-11T13:08:30.419Z,98.60
2019-02-11T13:11:01.742Z,111.20
2019-02-11T13:13:33.099Z,115.20
2019-02-11T13:16:05.323Z,111.80
2019-02-11T13:18:39.450Z,99.80
2019-02-11T13:21:09.374Z,130.80
2019-02-11T13:23:40.845Z,133.00
2019-02-11T13:26:13.500Z,122.60
2019-02-11T13:28:45.016Z,115.00
2019-02-11T13:31:16.864Z,127.20
2019-02-11T13:33:48.328Z,140.20
2019-02-11T13:36:19.747Z,132.60
2019-02-11T13:38:51.392Z,129.20
2019-02-11T13:41:22.868Z,108.80
2019-02-11T13:43:54.411Z,119.60
2019-02-11T13:46:25.933Z,113.80
2019-02-11T13:48:57.387Z,113.40
2019-02-11T13:51:29.238Z,103.00
2019-02-11T13:54:00.852Z,123.00
2019-02-11T13:56:33.117Z,126.60
2019-02-11T13:59:05.172Z,116.40
2019-02-11T14:01:37.601Z,115.20
2019-02-11T14:04:11.267Z,121.40
2019-02-11T14:06:43.017Z,110.80
2019-02-11T14:09:15.259Z,110.40
2019-02-11T14:11:47.030Z,110.20
2019-02-11T14:14:20.009Z,110.40
2019-02-11T14:16:51.647Z,115.40
2019-02-11T14:19:23.161Z,115.40
2019-02-11T14:21:54.498Z,123.60
2019-02-11T14:24:26.413Z,123.40
2019-02-11T14:26:57.777Z,130.80
2019-02-11T14:29:29.431Z,122.00
2019-02-11T14:32:01.579Z,122.60
2019-02-11T14:34:33.662Z,130.60
2019-02-11T14:37:05.380Z,131.00
2019-02-11T14:39:36.905Z,135.80
2019-02-11T14:42:08.713Z,129.60
2019-02-11T14:44:40.154Z,145.00
2019-02-11T14:47:11.737Z,130.40
2019-02-11T14:49:43.021Z,144.80
2019-02-11T14:52:14.577Z,151.00
2019-02-11T14:54:47.750Z,150.40
2019-02-11T14:57:20.629Z,161.40
2019-02-11T14:59:51.880Z,169.75
2019-02-11T15:02:23.593Z,179.50
2019-02-11T15:04:55.412Z,128.80
2019-02-11T15:07:27.256Z,198.25
2019-02-11T15:09:58.908Z,192.00
2019-02-11T15:12:30.577Z,186.00
2019-02-11T15:15:01.785Z,182.75
2019-02-11T15:17:33.247Z,184.50
2019-02-11T15:20:04.524Z,189.00
2019-02-11T15:22:36.241Z,196.50
2019-02-11T15:25:08.889Z,197.75
2019-02-11T15:27:40.506Z,195.75
2019-02-11T15:30:15.969Z,206.00
2019-02-11T15:32:47.968Z,207.50
2019-02-11T15:35:20.006Z,202.25
2019-02-11T15:37:51.271Z,205.25
2019-02-11T15:40:23.551Z,200.00
2019-02-11T15:42:55.132Z,196.25
2019-02-11T15:45:28.262Z,209.75
2019-02-11T15:48:00.755Z,207.00
2019-02-11T15:50:32.426Z,199.75
2019-02-11T15:53:04.083Z,196.75
2019-02-11T15:55:35.674Z,189.00
2019-02-11T15:58:07.232Z,197.50
2019-02-11T16:00:39.678Z,185.50
2019-02-11T16:03:11.184Z,183.00
2019-02-11T16:05:49.516Z,196.75
2019-02-11T16:08:17.735Z,195.25
2019-02-11T16:10:49.493Z,193.25
2019-02-11T16:13:20.799Z,204.25
2019-02-11T16:15:52.755Z,201.50
2019-02-11T16:18:24.062Z,195.50
2019-02-11T16:20:55.713Z,200.50
2019-02-11T16:23:27.583Z,197.25
2019-02-11T16:25:59.514Z,189.50
2019-02-11T16:28:31.009Z,198.25
2019-02-11T16:31:02.449Z,200.00
2019-02-11T16:33:33.931Z,194.25
2019-02-11T16:36:05.767Z,199.25
2019-02-11T16:38:37.166Z,200.25
2019-02-11T16:41:08.677Z,179.50
2019-02-11T16:43:40.125Z,206.75
2019-02-11T16:46:11.428Z,198.75
2019-02-11T16:48:42.908Z,196.00
2019-02-11T16:51:14.633Z,197.00
2019-02-11T16:53:45.994Z,199.50
2019-02-11T16:56:17.656Z,201.00
2019-02-11T16:58:49.203Z,183.75
2019-02-11T17:01:20.687Z,203.00
2019-02-11T17:03:52.027Z,203.25
2019-02-11T17:06:23.442Z,186.50
2019-02-11T17:08:55.982Z,188.00
2019-02-11T17:11:27.113Z,207.75
2019-02-11T17:13:58.461Z,192.75
2019-02-11T17:16:32.674Z,185.00
2019-02-11T17:19:09.436Z,191.25
2019-02-11T17:21:37.414Z,184.75
2019-02-11T17:24:08.808Z,188.75
2019-02-11T17:26:40.397Z,179.00
2019-02-11T17:29:12.020Z,182.75
2019-02-11T17:31:43.515Z,195.50
2019-02-11T17:34:15.105Z,186.00
2019-02-11T17:36:47.751Z,177.50
2019-02-11T17:39:19.152Z,186.25
2019-02-11T17:41:50.465Z,198.00
2019-02-11T17:44:22.292Z,173.00
2019-02-11T17:46:53.656Z,178.75
2019-02-11T17:49:25.116Z,194.75
2019-02-11T17:51:56.794Z,187.25
2019-02-11T17:54:28.330Z,189.25
2019-02-11T17:56:59.890Z,182.00
2019-02-11T17:59:31.356Z,178.50
2019-02-11T18:02:06.287Z,177.50
2019-02-11T18:04:37.999Z,189.50
2019-02-11T18:07:09.696Z,191.25
2019-02-11T18:09:44.527Z,180.75
2019-02-11T18:12:16.649Z,187.00
2019-02-11T18:14:48.139Z,202.25
2019-02-11T18:17:19.803Z,188.25
2019-02-11T18:19:51.454Z,184.75
2019-02-11T18:22:24.211Z,187.75
2019-02-11T18:24:55.697Z,189.25
2019-02-11T18:27:27.327Z,178.25
2019-02-11T18:29:58.881Z,181.75
2019-02-11T18:32:30.387Z,176.25
2019-02-11T18:35:01.910Z,174.25
2019-02-11T18:37:33.333Z,191.75
2019-02-11T18:40:04.832Z,190.50
2019-02-11T18:42:36.445Z,175.25
2019-02-11T18:45:09.879Z,197.75
2019-02-11T18:47:41.420Z,182.75
2019-02-11T18:50:15.513Z,179.00
2019-02-11T18:52:46.956Z,198.75
2019-02-11T18:55:18.698Z,193.75
2019-02-11T18:57:50.410Z,196.00
2019-02-11T19:00:21.935Z,183.00
2019-02-11T19:02:54.085Z,180.50
2019-02-11T19:05:25.440Z,202.50
2019-02-11T19:07:57.473Z,178.75
2019-02-11T19:10:28.991Z,187.50
2019-02-11T19:13:00.506Z,198.25
2019-02-11T19:15:32.088Z,193.25
2019-02-11T19:18:03.565Z,196.50
2019-02-11T19:20:34.888Z,191.00
2019-02-11T19:23:06.393Z,185.00
2019-02-11T19:25:37.743Z,180.75
2019-02-11T19:28:09.179Z,184.50
2019-02-11T19:30:40.578Z,194.25
2019-02-11T19:33:12.184Z,186.25
2019-02-11T19:35:43.569Z,189.00
2019-02-11T19:38:15.080Z,196.00
2019-02-11T19:40:46.432Z,197.00
2019-02-11T19:43:18.082Z,184.00
2019-02-11T19:45:49.398Z,198.75
2019-02-11T19:48:21.090Z,195.25
2019-02-11T19:50:52.572Z,199.50
2019-02-11T19:53:24.242Z,194.25
2019-02-11T19:55:55.551Z,195.75
2019-02-11T19:58:27.149Z,186.50
2019-02-11T20:00:58.572Z,192.00
2019-02-11T20:03:30.270Z,182.00
2019-02-11T20:06:03.577Z,185.50
2019-02-11T20:08:35.072Z,196.75
2019-02-11T20:11:06.856Z,212.25
2019-02-11T20:13:38.452Z,190.25
2019-02-11T20:16:09.817Z,210.25
2019-02-11T20:18:42.131Z,204.75
2019-02-11T20:21:13.562Z,198.75
2019-02-11T20:23:45.076Z,194.75
2019-02-11T20:26:16.367Z,187.25
2019-02-11T20:28:48.167Z,204.00
2019-02-11T20:31:19.492Z,202.25
2019-02-11T20:33:50.835Z,189.25
2019-02-11T20:36:22.356Z,214.00
2019-02-11T20:38:53.958Z,196.50
2019-02-11T20:41:25.434Z,218.00
2019-02-11T20:43:56.965Z,198.00
2019-02-11T20:46:28.951Z,200.75
2019-02-11T20:49:00.406Z,197.75
2019-02-11T20:51:31.765Z,204.50
2019-02-11T20:54:03.222Z,203.50
2019-02-11T20:56:38.124Z,194.25
2019-02-11T20:59:09.744Z,193.50
2019-02-11T21:01:41.366Z,204.00
2019-02-11T21:04:13.849Z,230.75
2019-02-11T21:06:45.350Z,199.25
2019-02-11T21:09:16.896Z,206.75
2019-02-11T21:11:49.471Z,198.75
2019-02-11T21:14:20.722Z,196.75
2019-02-11T21:16:52.079Z,213.50
2019-02-11T21:19:23.358Z,202.00
2019-02-11T21:21:56.547Z,200.00
2019-02-11T21:24:27.968Z,223.75
2019-02-11T21:27:00.384Z,199.25
2019-02-11T21:29:31.960Z,204.25
2019-02-11T21:32:03.518Z,208.25
2019-02-11T21:34:34.689Z,202.50
2019-02-11T21:37:06.547Z,212.50
2019-02-11T21:39:37.847Z,201.50
2019-02-11T21:42:09.271Z,195.50
2019-02-11T21:44:40.775Z,202.00
2019-02-11T21:47:12.210Z,205.50
2019-02-11T21:49:43.563Z,212.00
2019-02-11T21:52:15.037Z,224.75
2019-02-11T21:54:46.260Z,209.50
2019-02-11T21:57:18.031Z,209.75
2019-02-11T21:59:51.334Z,216.25
2019-02-11T22:02:23.047Z,212.75
2019-02-11T22:04:54.777Z,219.75
2019-02-11T22:07:26.317Z,221.75
2019-02-11T22:09:57.842Z,221.50
2019-02-11T22:12:29.161Z,207.75
2019-02-11T22:15:01.252Z,215.75
2019-02-11T22:17:32.590Z,220.75
2019-02-11T22:20:04.989Z,217.50
2019-02-11T22:22:36.752Z,198.25
2019-02-11T22:25:08.935Z,218.50
2019-02-11T22:27:40.603Z,225.75
2019-02-11T22:30:17.334Z,214.25
2019-02-11T22:32:49.795Z,200.25
2019-02-11T22:35:21.959Z,216.25
2019-02-11T22:37:53.722Z,203.25
2019-02-11T22:40:24.964Z,204.75
2019-02-11T22:42:56.453Z,188.50
2019-02-11T22:45:28.322Z,186.25
2019-02-11T22:48:00.653Z,196.75
2019-02-11T22:50:32.029Z,178.25
2019-02-11T22:53:03.395Z,182.50
2019-02-11T22:55:34.963Z,188.50
2019-02-11T22:58:07.771Z,188.50
2019-02-11T23:00:47.702Z,202.75
2019-02-11T23:03:20.422Z,188.25
2019-02-11T23:05:52.707Z,201.75
2019-02-11T23:08:24.074Z,191.25
2019-02-11T23:10:55.450Z,215.25
2019-02-11T23:13:27.010Z,186.00
2019-02-11T23:15:58.829Z,196.25
2019-02-11T23:18:30.283Z,199.25
2019-02-11T23:21:01.582Z,191.75
2019-02-11T23:23:32.966Z,203.00
2019-02-11T23:26:04.337Z,192.00
2019-02-11T23:28:36.022Z,203.50
2019-02-11T23:31:07.653Z,196.75
2019-02-11T23:33:39.099Z,189.50
2019-02-11T23:36:10.783Z,199.00
2019-02-11T23:38:42.066Z,203.50
2019-02-11T23:41:13.395Z,184.50
2019-02-11T23:43:44.949Z,204.00
2019-02-11T23:46:19.357Z,201.00
2019-02-11T23:48:50.800Z,217.50
2019-02-11T23:51:22.440Z,186.00
2019-02-11T23:53:53.901Z,213.25
2019-02-11T23:56:27.070Z,205.50
2019-02-11T23:58:58.357Z,207.25
